BKN weather

Blackwell Tonkawa Municipal Airport
Blackwell, Oklahoma, United States

Public forecast

Using degrees Fahrenheit for public forecast. Weather courtesy of forecast.io.

Current aviation weather report (METAR) for Blackwell Tonkawa Municipal Airport

Retrieved 2020/06/02 03:35 UTC (20 minutes ago):

KBKN 020335Z AUTO 14007KT 10SM 23/19 A3006 RMK AO2 LTG DSNT N

Closest aviation forecast (TAF) to Blackwell Tonkawa Municipal Airport

Closest forecast is Ponca City Regional Airport, 12.0 nm (22.3 km) E. Retrieved 2020-06-02 00:30 UTC (3 hours ago):

TAF KPNC 012328Z 0200/0224 15012KT P6SM BKN250 FM021400 18012G19KT P6SM SCT050 BKN250